createdAt,value
2018-02-22T00:01:01.961Z,-2.78
2018-02-22T00:03:33.400Z,-2.87
2018-02-22T00:06:05.250Z,-2.49
2018-02-22T00:08:36.107Z,-2.65
2018-02-22T00:11:07.290Z,-2.28
2018-02-22T00:13:38.849Z,-2.60
2018-02-22T00:16:10.093Z,-2.66
2018-02-22T00:18:41.197Z,-2.79
2018-02-22T00:21:11.970Z,-3.09
2018-02-22T00:23:43.634Z,-3.15
2018-02-22T00:26:15.255Z,-3.34
2018-02-22T00:28:46.590Z,-2.98
2018-02-22T00:31:18.217Z,-2.88
2018-02-22T00:33:49.686Z,-3.12
2018-02-22T00:36:21.144Z,-3.33
2018-02-22T00:38:52.502Z,-3.46
2018-02-22T00:41:23.385Z,-3.13
2018-02-22T00:43:55.037Z,-2.87
2018-02-22T00:46:26.368Z,-2.74
2018-02-22T00:48:58.751Z,-2.54
2018-02-22T00:51:30.984Z,-2.53
2018-02-22T00:54:01.822Z,-2.61
2018-02-22T00:56:33.404Z,-2.82
2018-02-22T00:59:04.748Z,-3.31
2018-02-22T01:01:36.760Z,-3.55
2018-02-22T01:04:08.279Z,-3.02
2018-02-22T01:06:39.786Z,-2.82
2018-02-22T01:09:11.153Z,-2.84
2018-02-22T01:11:42.753Z,-2.83
2018-02-22T01:14:13.600Z,-3.49
2018-02-22T01:16:45.401Z,-2.91
2018-02-22T01:19:17.171Z,-3.31
2018-02-22T01:21:48.459Z,-2.98
2018-02-22T01:24:19.773Z,-3.42
2018-02-22T01:26:50.840Z,-2.99
2018-02-22T01:29:22.565Z,-3.00
2018-02-22T01:31:54.045Z,-3.24
2018-02-22T01:34:25.774Z,-3.32
2018-02-22T01:36:58.892Z,-3.70
2018-02-22T01:39:30.113Z,-3.53
2018-02-22T01:42:01.735Z,-3.16
2018-02-22T01:44:32.912Z,-3.02
2018-02-22T01:47:05.156Z,-3.43
2018-02-22T01:49:36.804Z,-3.93
2018-02-22T01:52:08.631Z,-4.20
2018-02-22T01:54:40.260Z,-3.72
2018-02-22T01:57:11.712Z,-3.22
2018-02-22T01:59:43.251Z,-3.93
2018-02-22T02:02:15.528Z,-3.53
2018-02-22T02:04:52.955Z,-3.38
2018-02-22T02:07:33.043Z,-3.89
2018-02-22T02:10:05.548Z,-4.22
2018-02-22T02:12:37.356Z,-4.09
2018-02-22T02:15:09.525Z,-4.14
2018-02-22T02:17:41.352Z,-4.25
2018-02-22T02:20:12.908Z,-4.11
2018-02-22T02:22:44.760Z,-4.11
2018-02-22T02:25:17.192Z,-4.19
2018-02-22T02:27:52.164Z,-3.77
2018-02-22T02:30:23.661Z,-3.93
2018-02-22T02:32:55.606Z,-4.22
2018-02-22T02:35:27.557Z,-3.92
2018-02-22T02:38:00.260Z,-3.65
2018-02-22T02:40:31.933Z,-3.37
2018-02-22T02:43:03.997Z,-3.08
2018-02-22T02:45:35.610Z,-3.44
2018-02-22T02:48:06.977Z,-3.61
2018-02-22T02:50:38.325Z,-3.31
2018-02-22T02:53:09.536Z,-3.57
2018-02-22T02:55:40.961Z,-4.07
2018-02-22T02:58:12.667Z,-3.76
2018-02-22T03:00:49.695Z,-3.46
2018-02-22T03:03:27.530Z,-3.42
2018-02-22T03:06:04.535Z,-3.60
2018-02-22T03:08:35.773Z,-3.73
2018-02-22T03:11:07.917Z,-3.33
2018-02-22T03:13:40.193Z,-3.74
2018-02-22T03:16:11.875Z,-3.75
2018-02-22T03:18:43.057Z,-3.68
2018-02-22T03:21:14.485Z,-3.80
2018-02-22T03:23:46.225Z,-3.48
2018-02-22T03:26:17.910Z,-4.07
2018-02-22T03:28:49.410Z,-4.08
2018-02-22T03:31:21.065Z,-3.73
2018-02-22T03:33:52.493Z,-3.59
2018-02-22T03:36:24.300Z,-4.14
2018-02-22T03:38:57.218Z,-3.67
2018-02-22T03:41:28.759Z,-3.58
2018-02-22T03:44:00.208Z,-3.57
2018-02-22T03:46:31.728Z,-3.47
2018-02-22T03:49:02.906Z,-3.42
2018-02-22T03:51:34.733Z,-3.72
2018-02-22T03:54:06.846Z,-3.55
2018-02-22T03:56:38.303Z,-3.59
2018-02-22T03:59:09.892Z,-3.80
2018-02-22T04:01:41.800Z,-3.97
2018-02-22T04:04:13.251Z,-3.71
2018-02-22T04:06:44.681Z,-3.81
2018-02-22T04:09:16.377Z,-3.67
2018-02-22T04:11:47.465Z,-3.87
2018-02-22T04:14:19.217Z,-4.23
2018-02-22T04:16:50.308Z,-3.88
2018-02-22T04:19:21.784Z,-4.01
2018-02-22T04:21:53.320Z,-4.37
2018-02-22T04:24:25.366Z,-4.31
2018-02-22T04:26:57.400Z,-4.67
2018-02-22T04:29:29.141Z,-4.80
2018-02-22T04:32:02.173Z,-4.75
2018-02-22T04:34:33.726Z,-4.76
2018-02-22T04:37:05.455Z,-4.84
2018-02-22T04:39:36.920Z,-4.97
2018-02-22T04:42:08.682Z,-4.51
2018-02-22T04:44:40.406Z,-4.63
2018-02-22T04:47:12.373Z,-4.51
2018-02-22T04:49:44.325Z,-4.42
2018-02-22T04:52:16.346Z,-4.07
2018-02-22T04:54:48.023Z,-4.36
2018-02-22T04:57:19.816Z,-4.09
2018-02-22T04:59:51.814Z,-4.30
2018-02-22T05:02:23.381Z,-4.31
2018-02-22T05:04:56.563Z,-4.47
2018-02-22T05:07:28.090Z,-4.40
2018-02-22T05:10:00.274Z,-4.36
2018-02-22T05:12:32.358Z,-4.46
2018-02-22T05:15:03.682Z,-4.45
2018-02-22T05:17:35.773Z,-4.33
2018-02-22T05:20:06.917Z,-4.42
2018-02-22T05:22:38.634Z,-4.09
2018-02-22T05:25:10.197Z,-4.08
2018-02-22T05:27:41.630Z,-4.42
2018-02-22T05:30:12.778Z,-4.13
2018-02-22T05:32:44.544Z,-4.46
2018-02-22T05:35:16.674Z,-4.43
2018-02-22T05:37:48.790Z,-4.73
2018-02-22T05:40:19.975Z,-4.57
2018-02-22T05:42:51.585Z,-4.31
2018-02-22T05:45:22.790Z,-4.36
2018-02-22T05:47:53.945Z,-4.14
2018-02-22T05:50:25.546Z,-4.19
2018-02-22T05:53:01.624Z,-3.99
2018-02-22T05:55:33.037Z,-4.02
2018-02-22T05:58:04.694Z,-3.88
2018-02-22T06:00:36.645Z,-3.73
2018-02-22T06:03:09.101Z,-3.64
2018-02-22T06:05:40.516Z,-3.58
2018-02-22T06:08:13.841Z,-3.66
2018-02-22T06:10:47.638Z,-3.75
2018-02-22T06:13:18.470Z,-3.63
2018-02-22T06:15:49.994Z,-3.47
2018-02-22T06:18:21.176Z,-3.33
2018-02-22T06:20:52.077Z,-3.30
2018-02-22T06:23:24.999Z,-3.44
2018-02-22T06:25:56.445Z,-3.47
2018-02-22T06:28:28.036Z,-3.42
2018-02-22T06:31:00.344Z,-3.12
2018-02-22T06:33:35.043Z,-3.15
2018-02-22T06:36:07.894Z,-3.08
2018-02-22T06:38:39.550Z,-3.15
2018-02-22T06:41:10.821Z,-2.83
2018-02-22T06:43:43.385Z,-2.91
2018-02-22T06:46:14.895Z,-2.96
2018-02-22T06:48:45.833Z,-3.23
2018-02-22T06:51:17.724Z,-3.05
2018-02-22T06:53:48.837Z,-3.06
2018-02-22T06:56:19.649Z,-2.97
2018-02-22T06:58:50.525Z,-2.83
2018-02-22T07:01:22.025Z,-2.78
2018-02-22T07:03:53.013Z,-2.69
2018-02-22T07:06:24.152Z,-2.86
2018-02-22T07:08:55.105Z,-2.82
2018-02-22T07:11:25.858Z,-2.99
2018-02-22T07:14:00.137Z,-2.53
2018-02-22T07:16:31.065Z,-2.55
2018-02-22T07:19:02.142Z,-2.66
2018-02-22T07:21:33.309Z,-2.59
2018-02-22T07:24:04.295Z,-2.63
2018-02-22T07:26:35.373Z,-2.77
2018-02-22T07:29:06.389Z,-2.47
2018-02-22T07:31:37.545Z,-2.52
2018-02-22T07:34:08.470Z,-2.42
2018-02-22T07:36:40.320Z,-2.25
2018-02-22T07:39:12.133Z,-2.49
2018-02-22T07:41:43.773Z,-2.16
2018-02-22T07:44:14.978Z,-2.31
2018-02-22T07:46:46.146Z,-2.45
2018-02-22T07:49:17.472Z,-2.42
2018-02-22T07:51:48.713Z,-2.02
2018-02-22T07:54:20.201Z,-2.20
2018-02-22T07:56:51.029Z,-1.91
2018-02-22T07:59:22.787Z,-1.87
2018-02-22T08:01:54.217Z,-1.95
2018-02-22T08:04:25.095Z,-1.81
2018-02-22T08:06:56.800Z,-1.89
2018-02-22T08:09:27.713Z,-1.89
2018-02-22T08:11:58.683Z,-1.84
2018-02-22T08:14:29.573Z,-2.00
2018-02-22T08:17:02.398Z,-1.94
2018-02-22T08:19:33.942Z,-1.69
2018-02-22T08:22:04.790Z,-1.50
2018-02-22T08:24:35.654Z,-1.64
2018-02-22T08:27:07.410Z,-1.52
2018-02-22T08:29:39.304Z,-1.55
2018-02-22T08:32:10.259Z,-1.49
2018-02-22T08:34:41.397Z,-1.48
2018-02-22T08:37:12.820Z,-1.35
2018-02-22T08:39:44.243Z,-1.38
2018-02-22T08:42:15.509Z,-1.29
2018-02-22T08:44:47.425Z,-1.18
2018-02-22T08:47:19.053Z,-1.18
2018-02-22T08:49:49.954Z,-1.07
2018-02-22T08:52:20.781Z,-0.96
2018-02-22T08:54:51.854Z,-1.13
2018-02-22T08:57:23.519Z,-0.92
2018-02-22T08:59:54.530Z,-0.78
2018-02-22T09:02:25.401Z,-0.64
2018-02-22T09:04:57.843Z,-0.37
2018-02-22T09:07:28.669Z,-0.32
2018-02-22T09:09:59.509Z,-0.36
2018-02-22T09:12:30.805Z,-0.23
2018-02-22T09:15:01.844Z,-0.08
2018-02-22T09:17:32.655Z,-0.03
2018-02-22T09:20:04.245Z,-0.30
2018-02-22T09:22:35.055Z,-0.07
2018-02-22T09:25:06.383Z,-0.44
2018-02-22T09:27:37.648Z,0.11
2018-02-22T09:30:09.264Z,-0.16
2018-02-22T09:32:40.432Z,0.07
2018-02-22T09:35:11.194Z,0.16
2018-02-22T09:37:42.842Z,0.25
2018-02-22T09:40:14.437Z,0.17
2018-02-22T09:42:45.245Z,0.32
2018-02-22T09:45:16.141Z,-0.18
2018-02-22T09:47:47.299Z,0.22
2018-02-22T09:50:19.037Z,0.58
2018-02-22T09:52:50.538Z,0.59
2018-02-22T09:55:21.421Z,0.47
2018-02-22T09:57:52.289Z,0.53
2018-02-22T10:00:23.265Z,0.56
2018-02-22T10:02:54.064Z,0.68
2018-02-22T10:05:24.978Z,0.95
2018-02-22T10:07:57.389Z,0.81
2018-02-22T10:10:28.318Z,0.95
2018-02-22T10:13:00.112Z,0.78
2018-02-22T10:15:31.664Z,0.93
2018-02-22T10:18:03.074Z,0.75
2018-02-22T10:20:35.022Z,0.21
2018-02-22T10:23:05.937Z,0.13
2018-02-22T10:25:37.546Z,0.27
2018-02-22T10:28:08.707Z,0.32
2018-02-22T10:30:39.529Z,0.37
2018-02-22T10:33:10.384Z,0.23
2018-02-22T10:35:41.462Z,0.59
2018-02-22T10:38:12.249Z,1.06
2018-02-22T10:40:43.586Z,1.14
2018-02-22T10:43:14.874Z,1.27
2018-02-22T10:45:45.792Z,1.17
2018-02-22T10:48:16.942Z,1.23
2018-02-22T10:50:49.214Z,0.97
2018-02-22T10:53:20.553Z,1.02
2018-02-22T10:55:51.604Z,1.22
2018-02-22T10:58:23.186Z,1.03
2018-02-22T11:00:58.833Z,0.99
2018-02-22T11:03:29.984Z,1.09
2018-02-22T11:06:03.118Z,1.18
2018-02-22T11:08:33.910Z,1.55
2018-02-22T11:11:04.913Z,1.84
2018-02-22T11:13:35.654Z,2.11
2018-02-22T11:16:06.892Z,2.05
2018-02-22T11:18:38.266Z,2.04
2018-02-22T11:21:09.600Z,1.66
2018-02-22T11:23:41.027Z,2.16
2018-02-22T11:26:11.862Z,2.43
2018-02-22T11:28:43.298Z,2.21
2018-02-22T11:31:14.321Z,2.26
2018-02-22T11:33:45.090Z,1.68
2018-02-22T11:36:16.250Z,2.19
2018-02-22T11:38:47.621Z,2.14
2018-02-22T11:41:19.037Z,2.35
2018-02-22T11:43:49.877Z,2.11
2018-02-22T11:46:21.044Z,2.26
2018-02-22T11:48:53.005Z,1.64
2018-02-22T11:51:24.274Z,2.30
2018-02-22T11:53:55.466Z,2.08
2018-02-22T11:56:30.202Z,2.27
2018-02-22T11:59:01.102Z,2.69
2018-02-22T12:01:32.008Z,2.73
2018-02-22T12:04:02.878Z,2.64
2018-02-22T12:06:34.025Z,2.53
2018-02-22T12:09:11.347Z,2.39
2018-02-22T12:11:42.846Z,2.25
2018-02-22T12:14:14.091Z,2.21
2018-02-22T12:16:44.922Z,2.37
2018-02-22T12:19:15.748Z,2.08
2018-02-22T12:21:46.910Z,2.33
2018-02-22T12:24:18.262Z,2.41
2018-02-22T12:26:49.210Z,1.94
2018-02-22T12:29:20.366Z,2.50
2018-02-22T12:31:52.188Z,2.75
2018-02-22T12:34:23.029Z,2.90
2018-02-22T12:36:55.137Z,2.82
2018-02-22T12:39:26.009Z,2.65
2018-02-22T12:41:57.305Z,2.65
2018-02-22T12:44:28.325Z,2.39
2018-02-22T12:46:59.106Z,2.59
2018-02-22T12:49:30.474Z,2.67
2018-02-22T12:52:01.386Z,2.73
2018-02-22T12:54:32.225Z,3.00
2018-02-22T12:57:03.338Z,3.24
2018-02-22T12:59:34.131Z,3.02
2018-02-22T13:02:04.945Z,2.85
2018-02-22T13:04:37.771Z,3.16
2018-02-22T13:07:08.730Z,3.40
2018-02-22T13:09:39.743Z,3.42
2018-02-22T13:12:10.753Z,3.64
2018-02-22T13:14:41.530Z,3.31
2018-02-22T13:17:12.673Z,3.39
2018-02-22T13:19:43.423Z,3.02
2018-02-22T13:22:14.445Z,3.05
2018-02-22T13:24:46.444Z,2.74
2018-02-22T13:27:17.243Z,1.93
2018-02-22T13:29:48.188Z,2.11
2018-02-22T13:32:19.969Z,1.10
2018-02-22T13:34:50.877Z,1.15
2018-02-22T13:37:30.346Z,1.32
2018-02-22T13:40:03.126Z,1.63
2018-02-22T13:42:34.518Z,1.58
2018-02-22T13:45:40.441Z,1.64
2018-02-22T13:48:11.832Z,2.00
2018-02-22T13:50:53.161Z,1.79
2018-02-22T13:53:25.254Z,1.67
2018-02-22T13:55:56.166Z,1.56
2018-02-22T13:58:26.990Z,1.77
2018-02-22T14:01:07.985Z,1.61
2018-02-22T14:03:38.845Z,1.36
2018-02-22T14:06:09.990Z,1.30
2018-02-22T14:08:47.695Z,0.99
2018-02-22T14:11:18.860Z,1.32
2018-02-22T14:13:49.773Z,0.99
2018-02-22T14:16:20.658Z,0.94
2018-02-22T14:18:51.793Z,1.07
2018-02-22T14:21:22.678Z,0.98
2018-02-22T14:23:53.533Z,1.04
2018-02-22T14:26:25.718Z,1.11
2018-02-22T14:28:56.605Z,1.22
2018-02-22T14:31:27.871Z,1.36
2018-02-22T14:33:58.692Z,1.42
2018-02-22T14:36:31.122Z,1.45
2018-02-22T14:39:02.232Z,1.55
2018-02-22T14:41:33.273Z,1.47
2018-02-22T14:44:04.138Z,1.30
2018-02-22T14:46:35.353Z,1.11
2018-02-22T14:49:06.750Z,1.33
2018-02-22T14:51:37.533Z,1.24
2018-02-22T14:54:08.589Z,1.36
2018-02-22T14:56:39.813Z,1.36
2018-02-22T14:59:11.397Z,1.28
2018-02-22T15:01:43.069Z,1.42
2018-02-22T15:04:14.132Z,1.35
2018-02-22T15:06:45.321Z,1.37
2018-02-22T15:09:16.212Z,1.33
2018-02-22T15:11:47.181Z,1.36
2018-02-22T15:14:18.292Z,1.32
2018-02-22T15:16:50.557Z,1.32
2018-02-22T15:19:22.853Z,1.17
2018-02-22T15:21:54.407Z,1.21
2018-02-22T15:24:25.608Z,1.26
2018-02-22T15:26:57.336Z,1.18
2018-02-22T15:29:28.121Z,1.23
2018-02-22T15:31:59.358Z,1.24
2018-02-22T15:34:31.097Z,1.08
2018-02-22T15:37:01.989Z,1.10
2018-02-22T15:39:32.824Z,1.13
2018-02-22T15:42:03.725Z,0.96
2018-02-22T15:44:35.277Z,1.01
2018-02-22T15:47:07.642Z,0.88
2018-02-22T15:49:38.518Z,0.92
2018-02-22T15:52:10.236Z,0.81
2018-02-22T15:54:41.106Z,1.01
2018-02-22T15:57:12.069Z,1.08
2018-02-22T15:59:44.587Z,0.78
2018-02-22T16:02:16.610Z,0.93
2018-02-22T16:04:47.701Z,0.82
2018-02-22T16:07:19.328Z,0.73
2018-02-22T16:09:50.241Z,0.56
2018-02-22T16:12:21.381Z,0.59
2018-02-22T16:14:53.091Z,0.57
2018-02-22T16:17:24.167Z,0.54
2018-02-22T16:19:55.313Z,0.63
2018-02-22T16:22:26.195Z,0.46
2018-02-22T16:24:57.008Z,0.49
2018-02-22T16:27:28.222Z,0.40
2018-02-22T16:29:58.997Z,0.42
2018-02-22T16:32:29.974Z,0.31
2018-02-22T16:35:00.897Z,0.35
2018-02-22T16:37:31.781Z,0.05
2018-02-22T16:40:03.426Z,0.15
2018-02-22T16:42:34.241Z,0.02
2018-02-22T16:45:05.952Z,0.22
2018-02-22T16:47:37.065Z,0.28
2018-02-22T16:50:07.910Z,0.00
2018-02-22T16:52:39.294Z,0.09
2018-02-22T16:55:11.038Z,-0.02
2018-02-22T16:57:41.917Z,0.00
2018-02-22T17:00:13.117Z,-0.07
2018-02-22T17:02:44.001Z,0.08
2018-02-22T17:05:15.245Z,-0.21
2018-02-22T17:07:46.349Z,-0.23
2018-02-22T17:10:17.211Z,-0.02
2018-02-22T17:12:48.062Z,-0.21
2018-02-22T17:15:19.294Z,-0.36
2018-02-22T17:17:50.696Z,-0.16
2018-02-22T17:20:22.597Z,-0.09
2018-02-22T17:22:53.718Z,-0.24
2018-02-22T17:25:23.218Z,-0.29
2018-02-22T17:27:59.122Z,-0.37
2018-02-22T17:30:34.561Z,-0.30
2018-02-22T17:33:05.961Z,-0.33
2018-02-22T17:35:40.606Z,-0.31
2018-02-22T17:38:11.853Z,-0.57
2018-02-22T17:40:43.294Z,-0.37
2018-02-22T17:43:14.529Z,-0.40
2018-02-22T17:45:45.565Z,-0.48
2018-02-22T17:48:18.066Z,-0.62
2018-02-22T17:50:49.052Z,-0.71
2018-02-22T17:53:19.976Z,-0.48
2018-02-22T17:55:51.734Z,-0.42
2018-02-22T17:58:23.544Z,-0.50
2018-02-22T18:00:55.126Z,-0.85
2018-02-22T18:03:27.701Z,-0.93
2018-02-22T18:05:58.762Z,-1.04
2018-02-22T18:08:30.377Z,-1.21
2018-02-22T18:11:01.368Z,-1.29
2018-02-22T18:13:32.249Z,-1.20
2018-02-22T18:16:03.605Z,-1.12
2018-02-22T18:18:34.793Z,-1.36
2018-02-22T18:21:05.733Z,-1.37
2018-02-22T18:23:36.799Z,-1.42
2018-02-22T18:26:07.722Z,-1.52
2018-02-22T18:28:38.729Z,-1.77
2018-02-22T18:31:10.056Z,-1.77
2018-02-22T18:33:41.013Z,-1.85
2018-02-22T18:36:13.414Z,-1.82
2018-02-22T18:38:48.239Z,-1.72
2018-02-22T18:41:19.046Z,-1.29
2018-02-22T18:43:54.310Z,-1.21
2018-02-22T18:46:27.369Z,-1.34
2018-02-22T18:48:59.624Z,-1.43
2018-02-22T18:51:30.469Z,-1.34
2018-02-22T18:54:01.388Z,-1.28
2018-02-22T18:56:35.515Z,-1.38
2018-02-22T18:59:06.389Z,-1.29
2018-02-22T19:01:37.508Z,-1.22
2018-02-22T19:04:08.448Z,-1.14
2018-02-22T19:06:39.336Z,-1.10
2018-02-22T19:09:10.191Z,-1.16
2018-02-22T19:11:41.085Z,-1.21
2018-02-22T19:14:12.697Z,-1.17
2018-02-22T19:16:44.261Z,-1.18
2018-02-22T19:19:15.099Z,-1.29
2018-02-22T19:21:46.177Z,-1.42
2018-02-22T19:24:17.005Z,-1.17
2018-02-22T19:26:47.914Z,-1.25
2018-02-22T19:29:19.386Z,-1.12
2018-02-22T19:31:50.298Z,-1.22
2018-02-22T19:34:21.187Z,-1.13
2018-02-22T19:36:52.326Z,-1.38
2018-02-22T19:39:23.137Z,-1.56
2018-02-22T19:41:54.029Z,-1.45
2018-02-22T19:44:25.135Z,-1.69
2018-02-22T19:46:55.961Z,-1.56
2018-02-22T19:49:26.843Z,-1.64
2018-02-22T19:51:58.264Z,-2.11
2018-02-22T19:54:29.885Z,-1.83
2018-02-22T19:57:01.034Z,-1.86
2018-02-22T19:59:31.896Z,-2.07
2018-02-22T20:02:02.780Z,-2.05
2018-02-22T20:04:34.646Z,-1.67
2018-02-22T20:07:05.454Z,-1.39
2018-02-22T20:09:36.173Z,-2.42
2018-02-22T20:12:07.237Z,-2.86
